Аэропорт: Шымкент. Шымкент

ICAO: UAII

METAR:
2021-10-23 01:30:00
UAII 230130Z 11001MPS 6000 SCT046 03/00 Q1033 R10/0///70 NOSIG RMK QFE739/0986
METAR:
2021-10-22 23:00:00
TAF UAII 222300Z 2300/2324 08005MPS 6000 SCT033 TX14/2310Z TN01/2301Z TEMPO 2300/2304 12003G08MPS 1500 BR SCT010 TEMPO 2304/2308 04003G08MPS TEMPO 2308/2316 34005MPS SCT033CB